Orbital elements of SL-12 R/B
| Launched | 23 December 1985 |
| Flight ended | – |
| Launch site | Tyuratam Missile and Space Center, Kazakhstan (Also known as Baikonur Cosmodrome) |
| Owner | Commonwealth of Independent States (former USSR) |
| NORAD ID | 16445 |
| Alternative names |
AUX MOTOR |
| Date fetched |
Epoch osculation |
Inc. [°] |
Ecc. | RA asc node [hr] |
Arg Peri. [°] |
Mean anom [°] |
Mean motion [rev/day] |
Abs. mag |
| Date fetched |
Epoch osculation |
Inc. [°] |
Ecc. | RA asc node [hr] |
Arg Peri. [°] |
Mean anom [°] |
Mean motion [rev/day] |
Abs. mag |
| 2026 May 04 17:57 | 2026 Apr 29 10:04:48 | 64.7027 | 0.58035 | 13.7236 | 3.1375 | 359.3570 | 4.27847 | 7.743 |
| 2026 May 03 17:57 | 2026 Apr 29 10:04:48 | 64.7027 | 0.58035 | 13.7236 | 3.1375 | 359.3570 | 4.27847 | 7.743 |
| 2026 May 02 17:57 | 2026 Apr 29 10:04:48 | 64.7027 | 0.58035 | 13.7236 | 3.1375 | 359.3570 | 4.27847 | 7.743 |
| 2026 May 01 17:56 | 2026 Apr 29 10:04:48 | 64.7027 | 0.58035 | 13.7236 | 3.1375 | 359.3570 | 4.27847 | 7.743 |
| 2026 Apr 30 17:56 | 2026 Apr 29 10:04:48 | 64.7027 | 0.58035 | 13.7236 | 3.1375 | 359.3570 | 4.27847 | 7.743 |
| 2026 Apr 29 17:57 | 2026 Apr 21 11:20:59 | 64.7021 | 0.58025 | 13.9270 | 3.4489 | 359.3570 | 4.27847 | 7.743 |
| 2026 Apr 28 17:56 | 2026 Apr 21 11:20:59 | 64.7021 | 0.58025 | 13.9270 | 3.4489 | 359.3570 | 4.27847 | 7.743 |
| 2026 Apr 27 17:58 | 2026 Apr 21 11:20:59 | 64.7021 | 0.58025 | 13.9270 | 3.4489 | 359.3570 | 4.27847 | 7.743 |
| 2026 Apr 26 17:58 | 2026 Apr 21 11:20:59 | 64.7021 | 0.58025 | 13.9270 | 3.4489 | 359.3570 | 4.27847 | 7.743 |
| 2026 Apr 25 17:58 | 2026 Apr 21 11:20:59 | 64.7021 | 0.58025 | 13.9270 | 3.4489 | 359.3570 | 4.27847 | 7.743 |
| 2026 Apr 24 17:59 | 2026 Apr 21 11:20:59 | 64.7021 | 0.58025 | 13.9270 | 3.4489 | 359.3570 | 4.27847 | 7.743 |
| 2026 Apr 23 17:57 | 2026 Apr 16 13:32:19 | 64.7045 | 0.58016 | 14.0527 | 3.6441 | 359.3570 | 4.27847 | 7.743 |
| 2026 Apr 22 17:57 | 2026 Apr 16 13:32:19 | 64.7045 | 0.58016 | 14.0527 | 3.6441 | 359.3570 | 4.27847 | 7.743 |
| 2026 Apr 21 17:57 | 2026 Apr 16 13:32:19 | 64.7045 | 0.58016 | 14.0527 | 3.6441 | 359.3570 | 4.27847 | 7.743 |
| 2026 Apr 20 17:57 | 2026 Apr 16 13:32:19 | 64.7045 | 0.58016 | 14.0527 | 3.6441 | 359.3570 | 4.27847 | 7.743 |
| 2026 Apr 19 17:58 | 2026 Apr 16 13:32:19 | 64.7045 | 0.58016 | 14.0527 | 3.6441 | 359.3570 | 4.27847 | 7.743 |
| 2026 Apr 18 17:56 | 2026 Apr 11 10:06:51 | 64.7065 | 0.58007 | 14.1843 | 3.8500 | 359.3570 | 4.27847 | 7.743 |
| 2026 Apr 16 17:57 | 2026 Apr 11 10:06:51 | 64.7065 | 0.58007 | 14.1843 | 3.8500 | 359.3570 | 4.27847 | 7.743 |
| 2026 Apr 14 17:57 | 2026 Apr 11 10:06:51 | 64.7065 | 0.58007 | 14.1843 | 3.8500 | 359.3570 | 4.27847 | 7.743 |
| 2026 Apr 13 17:57 | 2026 Apr 11 10:06:51 | 64.7065 | 0.58007 | 14.1843 | 3.8500 | 359.3570 | 4.27847 | 7.743 |
| 2026 Apr 12 17:57 | 2026 Apr 08 09:10:47 | 64.7075 | 0.58003 | 14.2620 | 3.9685 | 359.3570 | 4.27847 | 7.743 |
| 2026 Apr 11 17:57 | 2026 Apr 08 09:10:47 | 64.7075 | 0.58003 | 14.2620 | 3.9685 | 359.3570 | 4.27847 | 7.743 |
| 2026 Apr 10 17:58 | 2026 Apr 08 09:10:47 | 64.7075 | 0.58003 | 14.2620 | 3.9685 | 359.3570 | 4.27847 | 7.743 |
| 2026 Apr 09 18:01 | 2026 Apr 08 09:10:47 | 64.7075 | 0.58003 | 14.2620 | 3.9685 | 359.3570 | 4.27847 | 7.743 |
| 2026 Apr 08 17:57 | 2026 Apr 08 09:10:47 | 64.7075 | 0.58003 | 14.2620 | 3.9685 | 359.3570 | 4.27847 | 7.743 |
| 2026 Apr 07 17:57 | 2026 Apr 01 14:28:17 | 64.7109 | 0.57995 | 14.4352 | 4.2416 | 359.3570 | 4.27847 | 7.743 |